Time;durP1;ratioP1;P1;durP2;ratioP2;P2;SDS_P1;SDS_P2;PMS_P1;PMS_P2;Temp;Humidity;BMP_temperature;BMP_pressure;BME280_temperature;BME280_humidity;BME280_pressure;Samples;Min_cycle;Max_cycle;Signal;HPM_P1;HPM_P2
2021/05/22 00:01:42;;;;;;;4.18;0.80;;;10.10;99.90;;;;;;5053632;28;20029;-66
2021/05/22 00:04:09;;;;;;;7.70;1.30;;;10.10;99.90;;;;;;5053135;28;20532;-66
2021/05/22 00:06:35;;;;;;;6.45;1.02;;;10.20;99.90;;;;;;5052708;28;20021;-66
2021/05/22 00:09:00;;;;;;;6.25;1.10;;;10.20;99.90;;;;;;5052081;28;20390;-67
2021/05/22 00:11:26;;;;;;;6.57;1.10;;;10.20;99.90;;;;;;5053630;28;20017;-66
2021/05/22 00:13:52;;;;;;;3.75;0.73;;;10.30;99.90;;;;;;5052019;28;20163;-66
2021/05/22 00:16:18;;;;;;;6.32;1.30;;;10.30;99.90;;;;;;5054421;28;20422;-66
2021/05/22 00:18:43;;;;;;;5.80;0.90;;;10.30;99.90;;;;;;5051976;28;20025;-67
2021/05/22 00:21:09;;;;;;;7.47;0.93;;;10.20;99.90;;;;;;5053145;28;20037;-66
2021/05/22 00:23:34;;;;;;;3.25;0.55;;;10.30;99.90;;;;;;5053315;28;20390;-66
2021/05/22 00:26:00;;;;;;;6.18;1.02;;;10.30;99.90;;;;;;5052477;28;20021;-66
2021/05/22 00:28:26;;;;;;;5.20;0.80;;;10.30;99.90;;;;;;5054857;28;20037;-67
2021/05/22 00:30:51;;;;;;;3.03;0.70;;;10.30;99.90;;;;;;5065926;28;20025;-66
2021/05/22 00:33:17;;;;;;;4.15;0.60;;;10.30;99.90;;;;;;5067264;28;20036;-66
2021/05/22 00:35:43;;;;;;;4.30;1.25;;;10.40;99.90;;;;;;5052048;28;20029;-66
2021/05/22 00:38:10;;;;;;;6.75;1.13;;;10.40;99.90;;;;;;5053968;28;20035;-67
2021/05/22 00:40:35;;;;;;;4.22;1.15;;;10.40;99.90;;;;;;5053268;28;20032;-65
2021/05/22 00:43:01;;;;;;;5.90;1.13;;;10.40;99.90;;;;;;5051189;28;20464;-65
2021/05/22 00:45:27;;;;;;;8.10;1.45;;;10.40;99.90;;;;;;5060662;28;20405;-66
2021/05/22 00:47:54;;;;;;;6.38;0.90;;;10.40;99.90;;;;;;5053038;28;20045;-66
2021/05/22 00:50:25;;;;;;;7.13;1.60;;;10.40;99.90;;;;;;5051062;28;20025;-66
2021/05/22 00:52:51;;;;;;;6.25;0.70;;;10.40;99.90;;;;;;5052829;28;20378;-66
2021/05/22 00:55:17;;;;;;;4.00;0.75;;;10.40;99.90;;;;;;5068227;28;20036;-67
2021/05/22 00:57:43;;;;;;;6.78;1.17;;;10.40;99.90;;;;;;5059421;28;20021;-66
2021/05/22 01:00:15;;;;;;;6.28;0.90;;;10.40;99.90;;;;;;5052498;28;20086;-66
2021/05/22 01:02:42;;;;;;;3.90;0.90;;;10.40;99.90;;;;;;5052674;28;20556;-66
2021/05/22 01:05:08;;;;;;;5.90;1.63;;;10.40;99.90;;;;;;5052257;28;20028;-70
2021/05/22 01:07:34;;;;;;;4.55;0.70;;;10.40;99.90;;;;;;5051223;28;20162;-66
2021/05/22 01:10:03;;;;;;;3.08;0.80;;;10.40;99.90;;;;;;5052537;28;20533;-65
2021/05/22 01:12:31;;;;;;;3.83;1.25;;;10.40;99.90;;;;;;5052189;28;20426;-67
2021/05/22 01:15:02;;;;;;;2.83;0.98;;;10.40;99.90;;;;;;5052175;28;20075;-66
2021/05/22 01:17:28;;;;;;;6.07;1.30;;;10.30;99.90;;;;;;5052258;28;20025;-66
2021/05/22 01:20:11;;;;;;;4.30;0.90;;;10.40;99.90;;;;;;5052158;28;20032;-66
2021/05/22 01:22:48;;;;;;;5.15;1.50;;;10.30;99.90;;;;;;5051753;28;20070;-66
2021/05/22 01:25:30;;;;;;;9.52;1.45;;;10.30;99.90;;;;;;5051962;28;20029;-66
2021/05/22 01:27:58;;;;;;;4.63;0.77;;;10.20;99.90;;;;;;5052098;28;20453;-66
2021/05/22 01:30:24;;;;;;;4.57;1.05;;;10.20;99.90;;;;;;5051810;28;20108;-66
2021/05/22 01:32:50;;;;;;;7.47;1.05;;;10.30;99.90;;;;;;5050363;28;20538;-66
2021/05/22 01:35:17;;;;;;;4.28;1.17;;;10.20;99.90;;;;;;5051798;28;20457;-66
2021/05/22 01:37:43;;;;;;;5.03;1.00;;;10.10;99.90;;;;;;5051998;28;20028;-66
2021/05/22 01:40:09;;;;;;;4.75;1.23;;;10.10;99.90;;;;;;5050824;28;20021;-66
2021/05/22 01:42:36;;;;;;;8.88;1.23;;;10.10;99.90;;;;;;5051557;28;20025;-66
2021/05/22 01:45:08;;;;;;;4.70;0.85;;;10.10;99.90;;;;;;5061520;28;20492;-66
2021/05/22 01:47:34;;;;;;;;;;;10.10;99.90;;;;;;5055873;28;20033;-66
2021/05/22 01:50:02;;;;;;;2.92;0.90;;;10.20;99.90;;;;;;5052222;28;19975;-66
2021/05/22 01:52:32;;;;;;;3.03;0.90;;;10.20;99.90;;;;;;5051393;28;20039;-66
2021/05/22 01:54:58;;;;;;;7.05;0.85;;;10.30;99.90;;;;;;5059569;28;20121;-66
2021/05/22 01:57:24;;;;;;;6.40;1.33;;;10.40;99.90;;;;;;5051778;28;20028;-66
2021/05/22 01:59:50;;;;;;;8.27;1.10;;;10.40;99.90;;;;;;5049665;28;20025;-66
2021/05/22 02:02:19;;;;;;;5.20;0.90;;;10.40;99.90;;;;;;5051514;28;20039;-66
2021/05/22 02:04:48;;;;;;;6.03;1.02;;;10.50;99.90;;;;;;5051339;28;20032;-66
2021/05/22 02:07:18;;;;;;;5.47;1.08;;;10.40;99.90;;;;;;5051646;28;20104;-66
2021/05/22 02:09:47;;;;;;;6.30;1.38;;;10.30;99.90;;;;;;5067002;28;20499;-66
2021/05/22 02:12:12;;;;;;;7.05;1.10;;;10.30;99.90;;;;;;5057909;28;20389;-66
2021/05/22 02:14:41;;;;;;;3.88;1.05;;;10.20;99.90;;;;;;5049915;28;20032;-66
2021/05/22 02:17:09;;;;;;;5.68;1.63;;;10.20;99.90;;;;;;5051121;28;20029;-66
2021/05/22 02:19:37;;;;;;;5.07;1.20;;;10.10;99.90;;;;;;5051019;28;20087;-66
2021/05/22 02:22:10;;;;;;;4.50;1.00;;;10.00;99.90;;;;;;5049666;28;20028;-65
2021/05/22 02:24:36;;;;;;;;;;;10.00;99.90;;;;;;5065201;28;20044;-66
2021/05/22 02:27:02;;;;;;;4.93;1.55;;;10.10;99.90;;;;;;5071448;28;19912;-66
2021/05/22 02:29:28;;;;;;;8.10;1.92;;;10.20;99.90;;;;;;5071151;28;20232;-66
2021/05/22 02:31:56;;;;;;;6.28;1.63;;;10.20;99.90;;;;;;5069792;28;20012;-66
2021/05/22 02:34:36;;;;;;;3.25;0.80;;;10.30;99.90;;;;;;5070742;28;20040;-67
2021/05/22 02:37:03;;;;;;;7.18;1.10;;;10.30;99.90;;;;;;5052846;28;20047;-65
2021/05/22 02:39:30;;;;;;;8.82;1.77;;;10.40;99.90;;;;;;5050581;28;20032;-66
2021/05/22 02:42:01;;;;;;;6.28;1.40;;;10.40;99.90;;;;;;5049845;28;20024;-67
2021/05/22 02:44:28;;;;;;;12.73;1.73;;;10.40;99.90;;;;;;5050515;28;20512;-66
2021/05/22 02:46:55;;;;;;;5.90;1.23;;;10.40;99.90;;;;;;5057693;28;20047;-66
2021/05/22 02:49:27;;;;;;;8.15;1.17;;;10.50;99.90;;;;;;5053434;28;20032;-66
2021/05/22 02:51:54;;;;;;;;;;;10.50;99.90;;;;;;5058079;28;20021;-66
2021/05/22 02:54:21;;;;;;;9.50;1.42;;;10.40;99.90;;;;;;5057462;28;19912;-66
2021/05/22 02:56:48;;;;;;;7.57;1.50;;;10.50;99.90;;;;;;5056307;28;20029;-66
2021/05/22 02:59:15;;;;;;;9.05;1.33;;;10.40;99.90;;;;;;5057361;28;20029;-66
2021/05/22 03:01:41;;;;;;;6.45;1.48;;;10.50;99.90;;;;;;5057244;28;20530;-66
2021/05/22 03:04:07;;;;;;;9.43;1.83;;;10.50;99.90;;;;;;5055414;28;20029;-66
2021/05/22 03:06:33;;;;;;;6.70;1.58;;;10.50;99.90;;;;;;5056182;28;20097;-66
2021/05/22 03:08:59;;;;;;;8.75;1.58;;;10.50;99.90;;;;;;5057196;28;20024;-66
2021/05/22 03:11:24;;;;;;;6.22;1.27;;;10.50;99.90;;;;;;5057054;28;20033;-66
2021/05/22 03:13:50;;;;;;;4.43;1.10;;;10.60;99.90;;;;;;5055815;28;20025;-66
2021/05/22 03:16:16;;;;;;;4.28;1.23;;;10.50;99.90;;;;;;5055947;28;20047;-66
2021/05/22 03:18:42;;;;;;;10.82;1.77;;;10.60;99.90;;;;;;5055931;28;20033;-66
2021/05/22 03:21:10;;;;;;;9.80;1.35;;;10.50;99.90;;;;;;5055991;28;20055;-66
2021/05/22 03:23:37;;;;;;;10.75;1.50;;;10.60;99.90;;;;;;5073808;28;20047;-66
2021/05/22 03:26:03;;;;;;;13.88;2.38;;;10.60;99.90;;;;;;5055855;28;20543;-66
2021/05/22 03:28:28;;;;;;;6.35;1.17;;;10.50;99.90;;;;;;5057029;28;20052;-66
2021/05/22 03:30:54;;;;;;;9.32;1.70;;;10.40;99.90;;;;;;5056881;28;20432;-66
2021/05/22 03:33:20;;;;;;;7.55;1.40;;;10.40;99.90;;;;;;5056949;28;20486;-66
2021/05/22 03:35:45;;;;;;;7.47;1.50;;;10.40;99.90;;;;;;5056824;28;20021;-66
2021/05/22 03:38:11;;;;;;;10.05;2.10;;;10.30;99.90;;;;;;5055541;28;20053;-67
2021/05/22 03:40:37;;;;;;;8.98;1.77;;;10.20;99.90;;;;;;5058906;28;20036;-66
2021/05/22 03:43:03;;;;;;;11.20;2.20;;;10.30;99.90;;;;;;5063112;28;20028;-66
2021/05/22 03:45:29;;;;;;;5.72;1.52;;;10.30;99.90;;;;;;5056933;28;20053;-66
2021/05/22 03:47:54;;;;;;;10.55;1.35;;;10.30;99.90;;;;;;5056950;28;20025;-66
2021/05/22 03:50:20;;;;;;;9.93;2.45;;;10.40;99.90;;;;;;5056801;28;20025;-66
2021/05/22 03:52:46;;;;;;;12.60;1.90;;;10.30;99.90;;;;;;5055580;28;20482;-66
2021/05/22 03:55:12;;;;;;;11.98;2.40;;;10.30;99.90;;;;;;5056989;28;20029;-66
2021/05/22 03:57:38;;;;;;;11.32;2.30;;;10.30;99.90;;;;;;5056800;28;20477;-66
2021/05/22 04:00:06;;;;;;;6.93;1.50;;;10.30;99.90;;;;;;5056154;28;20078;-66
2021/05/22 04:02:32;;;;;;;13.60;2.42;;;10.40;99.90;;;;;;5052546;28;20020;-66
2021/05/22 04:04:57;;;;;;;6.00;1.65;;;10.30;99.90;;;;;;5052015;28;20041;-66
2021/05/22 04:07:23;;;;;;;6.45;1.55;;;10.30;99.90;;;;;;5052278;28;20029;-66
2021/05/22 04:09:48;;;;;;;8.00;1.73;;;10.20;99.90;;;;;;5053839;28;20021;-66
2021/05/22 04:12:14;;;;;;;14.82;2.33;;;10.20;99.90;;;;;;5053580;28;20021;-66
2021/05/22 04:14:40;;;;;;;8.32;1.92;;;10.00;99.90;;;;;;5061001;28;20025;-66
2021/05/22 04:17:05;;;;;;;8.35;1.73;;;10.10;99.90;;;;;;5061530;28;20090;-66
2021/05/22 04:19:31;;;;;;;7.40;1.60;;;10.10;99.90;;;;;;5052530;28;20032;-66
2021/05/22 04:21:57;;;;;;;8.90;1.70;;;10.10;99.90;;;;;;5068547;28;20508;-67
2021/05/22 04:24:22;;;;;;;10.77;2.28;;;10.10;99.90;;;;;;5060971;28;20033;-67
2021/05/22 04:26:48;;;;;;;6.93;1.45;;;10.10;99.90;;;;;;5052859;28;20439;-67
2021/05/22 04:29:13;;;;;;;3.63;1.38;;;10.00;99.90;;;;;;5053087;28;20499;-67
2021/05/22 04:31:39;;;;;;;6.65;1.80;;;9.90;99.90;;;;;;5053131;28;20039;-66
2021/05/22 04:34:04;;;;;;;6.90;1.88;;;9.90;99.90;;;;;;5059226;28;20025;-66
2021/05/22 04:36:30;;;;;;;6.47;1.73;;;9.80;99.90;;;;;;5053278;28;20425;-66
2021/05/22 04:38:56;;;;;;;8.38;1.75;;;9.80;99.90;;;;;;5053135;28;20037;-65
2021/05/22 04:41:21;;;;;;;11.27;2.03;;;9.90;99.90;;;;;;5052769;28;20025;-66
2021/05/22 04:43:47;;;;;;;8.63;1.70;;;9.90;99.90;;;;;;5051492;28;20112;-66
2021/05/22 04:46:13;;;;;;;7.15;1.63;;;10.00;99.90;;;;;;5058583;28;20021;-66
2021/05/22 04:48:38;;;;;;;9.18;1.88;;;10.10;99.90;;;;;;5052942;28;20049;-65
2021/05/22 04:51:04;;;;;;;6.47;1.70;;;10.10;99.90;;;;;;5052826;28;20021;-66
2021/05/22 04:53:32;;;;;;;11.80;1.90;;;10.10;99.90;;;;;;5052804;28;20031;-66
2021/05/22 04:55:58;;;;;;;10.77;2.60;;;10.20;99.90;;;;;;5052429;28;20032;-66
2021/05/22 04:58:23;;;;;;;8.38;1.85;;;10.20;99.90;;;;;;5052454;28;20037;-66
2021/05/22 05:00:49;;;;;;;4.13;1.15;;;10.30;99.90;;;;;;5052610;28;20025;-66
2021/05/22 05:03:14;;;;;;;7.20;1.80;;;10.20;99.90;;;;;;5052060;28;20482;-66
2021/05/22 05:05:41;;;;;;;8.05;1.70;;;10.00;99.90;;;;;;5051670;28;20025;-66
2021/05/22 05:08:07;;;;;;;7.90;1.45;;;10.00;99.90;;;;;;5060298;28;20017;-66
2021/05/22 05:10:32;;;;;;;8.05;1.45;;;9.90;99.90;;;;;;5053310;28;20099;-66
2021/05/22 05:12:58;;;;;;;5.82;1.50;;;10.00;99.90;;;;;;5052135;28;20029;-66
2021/05/22 05:15:24;;;;;;;12.57;2.42;;;9.90;99.90;;;;;;5052789;28;20075;-67
2021/05/22 05:17:49;;;;;;;10.13;1.73;;;9.90;99.90;;;;;;5062907;28;20500;-66
2021/05/22 05:20:15;;;;;;;7.07;1.58;;;9.80;99.90;;;;;;5054856;28;20432;-66
2021/05/22 05:22:41;;;;;;;6.32;1.63;;;9.90;99.90;;;;;;5051835;28;20032;-66
2021/05/22 05:25:08;;;;;;;8.55;1.70;;;9.80;99.90;;;;;;5051771;28;20017;-66
2021/05/22 05:27:33;;;;;;;6.15;1.75;;;9.80;99.90;;;;;;5050579;28;20046;-66
2021/05/22 05:29:59;;;;;;;10.50;1.92;;;9.80;99.90;;;;;;5050646;28;20040;-66
2021/05/22 05:32:25;;;;;;;10.57;1.95;;;9.70;99.90;;;;;;5051699;28;20408;-66
2021/05/22 05:34:50;;;;;;;10.77;1.88;;;9.70;99.90;;;;;;5051637;28;20064;-66
2021/05/22 05:37:16;;;;;;;7.68;1.27;;;9.70;99.90;;;;;;5050853;28;20039;-67
2021/05/22 05:39:43;;;;;;;9.32;2.00;;;9.60;99.90;;;;;;5051903;28;20393;-66
2021/05/22 05:42:08;;;;;;;10.07;2.13;;;9.60;99.90;;;;;;5056775;28;20032;-62
2021/05/22 05:44:34;;;;;;;11.52;2.13;;;9.60;99.90;;;;;;5063205;28;20492;-65
2021/05/22 05:47:00;;;;;;;11.15;1.95;;;9.60;99.90;;;;;;5050496;28;20600;-62
2021/05/22 05:49:29;;;;;;;11.88;2.60;;;9.50;99.90;;;;;;5051625;28;20020;-60
2021/05/22 05:51:58;;;;;;;6.65;1.67;;;9.50;99.90;;;;;;5051556;28;20489;-65
2021/05/22 05:54:25;;;;;;;5.20;1.85;;;9.60;99.90;;;;;;5051617;28;20048;-62
2021/05/22 05:56:51;;;;;;;7.22;2.05;;;9.50;99.90;;;;;;5051618;28;20033;-62
2021/05/22 05:59:17;;;;;;;7.68;2.10;;;9.50;99.90;;;;;;5051630;28;20036;-63
2021/05/22 06:01:42;;;;;;;9.70;2.92;;;9.50;99.90;;;;;;5051443;28;20382;-62
2021/05/22 06:04:08;;;;;;;7.32;2.25;;;9.50;99.90;;;;;;5050972;28;20028;-62
2021/05/22 06:06:34;;;;;;;11.73;2.42;;;9.50;99.90;;;;;;5051269;28;20032;-62
2021/05/22 06:09:01;;;;;;;9.00;2.00;;;9.50;99.90;;;;;;5049866;28;20029;-61
2021/05/22 06:11:29;;;;;;;10.02;1.70;;;9.50;99.90;;;;;;5049925;28;20139;-61
2021/05/22 06:13:55;;;;;;;7.60;2.00;;;9.50;99.90;;;;;;5050905;28;20078;-62
2021/05/22 06:16:36;;;;;;;13.55;2.20;;;9.50;99.90;;;;;;5051452;28;20032;-62
2021/05/22 06:19:02;;;;;;;8.02;2.08;;;9.50;99.90;;;;;;5051103;28;20402;-62
2021/05/22 06:21:28;;;;;;;10.20;2.17;;;9.50;99.90;;;;;;5049648;28;20501;-62
2021/05/22 06:23:54;;;;;;;10.43;3.13;;;9.50;99.90;;;;;;5066796;28;20078;-63
2021/05/22 06:26:20;;;;;;;8.82;2.40;;;9.50;99.90;;;;;;5071494;28;20048;-62
2021/05/22 06:28:46;;;;;;;9.38;2.35;;;9.50;99.90;;;;;;5070914;28;20044;-62
2021/05/22 06:31:12;;;;;;;10.02;2.55;;;9.60;99.90;;;;;;5070261;28;20029;-62
2021/05/22 06:33:37;;;;;;;8.35;2.25;;;9.50;99.90;;;;;;5071390;28;20386;-61
2021/05/22 06:36:03;;;;;;;9.18;2.20;;;9.60;99.90;;;;;;5069498;28;20044;-61
2021/05/22 06:38:29;;;;;;;10.88;2.35;;;9.60;99.90;;;;;;5052012;28;20041;-62
2021/05/22 06:40:55;;;;;;;4.70;1.10;;;9.60;99.90;;;;;;5051138;28;20024;-61
2021/05/22 06:43:21;;;;;;;12.48;2.60;;;9.60;99.90;;;;;;5051037;28;20583;-62
2021/05/22 06:46:09;;;;;;;7.88;1.88;;;9.60;99.90;;;;;;5049616;28;20049;-62
2021/05/22 06:48:35;;;;;;;5.88;2.05;;;9.70;99.90;;;;;;5050894;28;20014;-61
2021/05/22 06:51:03;;;;;;;10.70;2.20;;;9.70;99.90;;;;;;5051131;28;20027;-61
2021/05/22 06:53:30;;;;;;;13.15;3.00;;;9.70;99.90;;;;;;5049656;28;20480;-61
2021/05/22 06:55:57;;;;;;;13.60;2.47;;;9.70;99.90;;;;;;5049546;28;20056;-62
2021/05/22 06:58:23;;;;;;;12.10;3.25;;;9.70;99.90;;;;;;5050825;28;20029;-61
2021/05/22 07:00:51;;;;;;;7.15;1.98;;;9.70;99.90;;;;;;5049732;28;20025;-61
2021/05/22 07:03:17;;;;;;;10.90;2.70;;;9.70;99.90;;;;;;5050531;28;20031;-61
2021/05/22 07:05:43;;;;;;;10.65;2.90;;;9.70;99.90;;;;;;5052033;28;20024;-60
2021/05/22 07:08:09;;;;;;;8.50;2.83;;;9.70;99.90;;;;;;5054612;28;20067;-60
2021/05/22 07:10:35;;;;;;;10.10;2.60;;;9.70;99.90;;;;;;5051597;28;20052;-61
2021/05/22 07:13:02;;;;;;;9.52;2.83;;;9.80;99.90;;;;;;5049376;28;20021;-60
2021/05/22 07:15:28;;;;;;;13.70;3.28;;;9.80;99.90;;;;;;5055693;28;20032;-60
2021/05/22 07:17:54;;;;;;;8.82;2.50;;;9.80;99.90;;;;;;5051123;28;20027;-60
2021/05/22 07:20:20;;;;;;;9.63;2.42;;;9.90;99.90;;;;;;5057756;28;20461;-60
2021/05/22 07:22:50;;;;;;;8.35;2.25;;;9.90;99.90;;;;;;5066653;28;20116;-60
2021/05/22 07:25:20;;;;;;;9.20;2.15;;;9.80;99.90;;;;;;5049077;28;20052;-60
2021/05/22 07:27:49;;;;;;;8.85;3.10;;;9.80;99.90;;;;;;5048886;28;20103;-61
2021/05/22 07:30:16;;;;;;;10.90;3.13;;;9.90;99.90;;;;;;5054095;28;20036;-60
2021/05/22 07:32:43;;;;;;;6.20;2.38;;;9.90;99.90;;;;;;5052108;28;20017;-61
2021/05/22 07:35:13;;;;;;;11.15;2.88;;;9.90;99.90;;;;;;5050412;28;20028;-61
2021/05/22 07:37:39;;;;;;;7.13;2.03;;;9.90;99.90;;;;;;5053373;28;20385;-61
2021/05/22 07:40:10;;;;;;;9.27;3.22;;;9.80;99.90;;;;;;5054269;28;20477;-60
2021/05/22 07:42:36;;;;;;;15.25;3.30;;;9.80;99.90;;;;;;5053574;28;20021;-60
2021/05/22 07:45:06;;;;;;;10.00;2.90;;;9.80;99.90;;;;;;5053875;28;20044;-60
2021/05/22 07:47:34;;;;;;;10.50;3.42;;;9.90;99.90;;;;;;5053975;28;20017;-61
2021/05/22 07:50:00;;;;;;;9.45;2.72;;;9.90;99.90;;;;;;5061335;28;20099;-62
2021/05/22 07:52:27;;;;;;;9.10;4.03;;;9.80;99.90;;;;;;5052474;28;20120;-61
2021/05/22 07:54:53;;;;;;;7.43;2.90;;;9.90;99.90;;;;;;5053616;28;20075;-61
2021/05/22 07:57:19;;;;;;;9.75;3.60;;;9.90;99.90;;;;;;5053972;28;20025;-61
2021/05/22 07:59:44;;;;;;;10.68;3.25;;;9.90;99.90;;;;;;5053688;28;20482;-61
2021/05/22 08:02:10;;;;;;;8.38;3.17;;;10.00;99.90;;;;;;5053905;28;20039;-61
2021/05/22 08:04:36;;;;;;;5.72;2.72;;;10.00;99.90;;;;;;5053322;28;20482;-61
2021/05/22 08:07:02;;;;;;;7.70;3.33;;;10.00;99.90;;;;;;5052221;28;20100;-61
2021/05/22 08:09:28;;;;;;;7.82;3.50;;;10.00;99.90;;;;;;5062556;28;20064;-61
2021/05/22 08:11:53;;;;;;;11.13;3.72;;;10.00;99.90;;;;;;5073459;28;20508;-61
2021/05/22 08:14:19;;;;;;;7.35;2.58;;;10.00;99.90;;;;;;5073676;28;20431;-60
2021/05/22 08:16:45;;;;;;;5.60;3.38;;;10.00;99.90;;;;;;5060641;28;20028;-61
2021/05/22 08:19:12;;;;;;;10.70;3.90;;;10.00;99.90;;;;;;5053410;28;20036;-60
2021/05/22 08:21:38;;;;;;;6.50;2.55;;;10.00;99.90;;;;;;5053335;28;20025;-60
2021/05/22 08:24:04;;;;;;;11.10;3.17;;;10.10;99.90;;;;;;5057514;28;20489;-61
2021/05/22 08:26:30;;;;;;;5.88;3.10;;;10.10;99.90;;;;;;5063007;28;20025;-60
2021/05/22 08:28:56;;;;;;;8.10;3.47;;;10.10;99.90;;;;;;5052909;28;20047;-61
2021/05/22 08:31:21;;;;;;;12.88;3.47;;;10.30;99.90;;;;;;5051756;28;20048;-61
2021/05/22 08:33:48;;;;;;;9.60;4.30;;;10.30;99.90;;;;;;5051658;28;20087;-61
2021/05/22 08:36:14;;;;;;;7.75;3.03;;;10.30;99.90;;;;;;5052791;28;20033;-61
2021/05/22 08:38:40;;;;;;;8.63;2.42;;;10.40;99.90;;;;;;5060691;28;20043;-61
2021/05/22 08:41:07;;;;;;;9.20;3.25;;;10.40;99.90;;;;;;5052963;28;20075;-61
2021/05/22 08:43:33;;;;;;;8.27;3.83;;;10.40;99.90;;;;;;5052613;28;20025;-62
2021/05/22 08:45:59;;;;;;;5.18;2.45;;;10.40;99.90;;;;;;5052388;28;20036;-62
2021/05/22 08:48:25;;;;;;;6.80;3.58;;;10.50;99.90;;;;;;5052099;28;20025;-62
2021/05/22 08:50:51;;;;;;;10.20;3.85;;;10.50;99.90;;;;;;5068090;28;20024;-62
2021/05/22 08:53:17;;;;;;;7.75;3.90;;;10.60;99.90;;;;;;5051214;28;20333;-62
2021/05/22 08:55:43;;;;;;;9.77;3.13;;;10.70;99.90;;;;;;5052599;28;20028;-61
2021/05/22 08:58:08;;;;;;;8.63;3.45;;;10.80;99.90;;;;;;5051265;28;20386;-60
2021/05/22 09:00:41;;;;;;;6.35;2.58;;;10.80;99.90;;;;;;5052509;28;20056;-60
2021/05/22 09:03:09;;;;;;;11.18;2.67;;;10.80;99.90;;;;;;5052290;28;20378;-60
2021/05/22 09:05:36;;;;;;;4.55;2.42;;;10.80;99.90;;;;;;5071449;28;20021;-60
2021/05/22 09:08:05;;;;;;;8.00;2.60;;;10.80;99.90;;;;;;5062004;28;20401;-60
2021/05/22 09:10:33;;;;;;;5.03;2.83;;;10.70;99.90;;;;;;5052290;28;20029;-60
2021/05/22 09:13:00;;;;;;;10.02;2.58;;;10.70;99.90;;;;;;5051576;28;20120;-60
2021/05/22 09:15:32;;;;;;;8.52;2.88;;;10.60;99.90;;;;;;5053963;28;20067;-60
2021/05/22 09:18:00;;;;;;;10.17;3.30;;;10.60;99.90;;;;;;5065966;28;20033;-60
2021/05/22 09:20:49;;;;;;;8.35;2.78;;;10.70;99.90;;;;;;5052659;28;20029;-60
2021/05/22 09:23:36;;;;;;;10.23;3.30;;;10.80;99.90;;;;;;5057928;28;20056;-61
2021/05/22 09:26:08;;;;;;;8.05;3.20;;;10.90;99.90;;;;;;5050865;28;20075;-60
2021/05/22 09:28:43;;;;;;;8.52;2.40;;;10.80;99.90;;;;;;5052022;28;20387;-60
2021/05/22 09:31:13;;;;;;;8.35;3.28;;;10.80;99.90;;;;;;5051991;28;20037;-59
2021/05/22 09:33:39;;;;;;;8.75;3.58;;;10.80;99.90;;;;;;5057122;28;20116;-59
2021/05/22 09:36:11;;;;;;;8.70;3.70;;;10.80;99.90;;;;;;5050219;28;20028;-59
2021/05/22 09:38:37;;;;;;;7.68;3.97;;;10.70;99.90;;;;;;5051174;28;20082;-60
2021/05/22 09:41:31;;;;;;;9.85;3.92;;;10.70;99.90;;;;;;5052065;28;20029;-60
2021/05/22 09:44:16;;;;;;;10.00;3.30;;;10.60;99.90;;;;;;5051683;28;20020;-63
2021/05/22 09:46:44;;;;;;;11.98;4.78;;;10.50;99.90;;;;;;5059647;28;20431;-63
2021/05/22 09:49:24;;;;;;;13.23;4.05;;;10.50;99.90;;;;;;5070897;28;20477;-63
2021/05/22 09:52:06;;;;;;;8.40;3.80;;;10.60;99.90;;;;;;5052787;28;20071;-63
2021/05/22 09:54:38;;;;;;;9.40;4.70;;;10.70;99.90;;;;;;5051441;28;20375;-63
2021/05/22 09:57:04;;;;;;;16.10;4.45;;;10.80;99.90;;;;;;5058006;28;20028;-63
2021/05/22 09:59:29;;;;;;;11.32;4.25;;;10.80;99.90;;;;;;5051351;28;20033;-62
2021/05/22 10:01:57;;;;;;;10.27;4.20;;;10.80;99.90;;;;;;5051649;28;20037;-63
2021/05/22 10:04:22;;;;;;;11.85;4.30;;;10.90;99.90;;;;;;5055886;28;20385;-64
2021/05/22 10:06:48;;;;;;;5.22;3.30;;;10.90;99.90;;;;;;5061926;28;20040;-63
2021/05/22 10:09:17;;;;;;;8.70;2.47;;;10.80;99.90;;;;;;5051005;28;20565;-62
2021/05/22 10:12:09;;;;;;;6.90;2.78;;;10.80;99.90;;;;;;5051870;28;20021;-62
2021/05/22 10:14:42;;;;;;;6.22;2.92;;;10.80;99.90;;;;;;5051387;28;20032;-62
2021/05/22 10:17:09;;;;;;;10.38;3.75;;;10.80;99.90;;;;;;5052452;28;20386;-62
2021/05/22 10:19:37;;;;;;;6.00;3.42;;;10.80;99.90;;;;;;5049913;28;20071;-63
2021/05/22 10:22:07;;;;;;;7.10;3.03;;;10.80;99.90;;;;;;5049468;28;20040;-64
2021/05/22 10:24:33;;;;;;;10.77;3.35;;;10.80;99.90;;;;;;5051038;28;20025;-62
2021/05/22 10:27:00;;;;;;;10.00;4.15;;;10.70;99.90;;;;;;5050527;28;20047;-63
2021/05/22 10:29:26;;;;;;;6.22;3.33;;;10.70;99.90;;;;;;5050549;28;20041;-63
2021/05/22 10:31:53;;;;;;;11.27;4.15;;;10.80;99.90;;;;;;5057285;28;20022;-63
2021/05/22 10:34:21;;;;;;;7.40;4.22;;;10.80;99.90;;;;;;5067812;28;20374;-63
2021/05/22 10:36:48;;;;;;;8.82;4.15;;;10.80;99.90;;;;;;5057212;28;20474;-64
2021/05/22 10:39:31;;;;;;;8.73;3.88;;;10.90;99.90;;;;;;5050959;28;20086;-64
2021/05/22 10:41:57;;;;;;;11.60;4.38;;;10.90;99.90;;;;;;5056706;28;20024;-63
2021/05/22 10:44:28;;;;;;;7.95;3.58;;;10.90;99.90;;;;;;5058748;28;20494;-63
2021/05/22 10:47:14;;;;;;;6.68;2.50;;;11.00;99.90;;;;;;5064845;28;20020;-65
2021/05/22 10:49:54;;;;;;;7.75;2.72;;;11.10;99.90;;;;;;5050437;28;20040;-62
2021/05/22 10:52:21;;;;;;;6.00;2.22;;;11.20;99.90;;;;;;5051023;28;20063;-62
2021/05/22 10:55:06;;;;;;;3.90;2.38;;;11.10;99.90;;;;;;5061596;28;20032;-63
2021/05/22 10:57:54;;;;;;;6.78;2.10;;;11.20;99.90;;;;;;5069412;28;20067;-63
2021/05/22 11:00:23;;;;;;;5.25;1.90;;;11.30;99.90;;;;;;5061117;28;20424;-63
2021/05/22 11:03:13;;;;;;;5.18;1.90;;;11.30;99.90;;;;;;5057125;28;20033;-62
2021/05/22 11:05:43;;;;;;;3.72;1.75;;;11.40;99.90;;;;;;5057600;28;20098;-62
2021/05/22 11:08:08;;;;;;;4.18;2.30;;;11.30;99.90;;;;;;5050389;28;20021;-63
2021/05/22 11:10:59;;;;;;;5.60;2.35;;;11.40;99.90;;;;;;5051368;28;20108;-62
2021/05/22 11:13:25;;;;;;;6.85;2.20;;;11.50;99.90;;;;;;5053113;28;20033;-62
2021/05/22 11:15:55;;;;;;;3.75;2.08;;;11.40;99.90;;;;;;5052987;28;20489;-64
2021/05/22 11:18:34;;;;;;;11.02;3.05;;;11.40;99.90;;;;;;5053660;28;20112;-63
2021/05/22 11:21:08;;;;;;;9.77;3.20;;;11.30;99.90;;;;;;5064746;28;20028;-62
2021/05/22 11:24:06;;;;;;;4.80;2.78;;;11.20;99.90;;;;;;5074173;28;20020;-61
2021/05/22 11:26:53;;;;;;;9.50;2.92;;;11.10;99.90;;;;;;5059814;28;20031;-61
2021/05/22 11:29:21;;;;;;;5.72;2.47;;;11.10;99.90;;;;;;5053968;28;20075;-61
2021/05/22 11:31:47;;;;;;;4.38;2.40;;;11.10;99.90;;;;;;5054278;28;20021;-61
2021/05/22 11:34:22;;;;;;;4.82;2.38;;;11.20;99.90;;;;;;5053763;28;20146;-61
2021/05/22 11:37:09;;;;;;;5.30;1.83;;;11.20;99.90;;;;;;5054274;28;20074;-60
2021/05/22 11:39:47;;;;;;;3.03;1.25;;;11.30;99.90;;;;;;5054063;28;20486;-61
2021/05/22 11:42:31;;;;;;;5.13;1.85;;;11.40;99.90;;;;;;5053792;28;20122;-60
2021/05/22 11:44:59;;;;;;;2.38;1.63;;;11.50;99.90;;;;;;5053846;28;20029;-60
2021/05/22 11:47:31;;;;;;;1.30;0.70;;;11.60;99.90;;;;;;5054448;28;20017;-63
2021/05/22 11:49:58;;;;;;;3.22;0.70;;;11.40;99.90;;;;;;5066461;28;20385;-64
2021/05/22 11:52:34;;;;;;;1.05;0.60;;;11.10;99.90;;;;;;5053244;28;20033;-65
2021/05/22 11:55:15;;;;;;;0.50;0.50;;;11.00;99.90;;;;;;5054596;28;20086;-64
2021/05/22 11:57:40;;;;;;;1.45;0.90;;;10.70;99.90;;;;;;5055356;28;20043;-64
2021/05/22 12:00:07;;;;;;;2.15;0.60;;;10.60;99.90;;;;;;5053509;28;20414;-64
2021/05/22 12:02:40;;;;;;;1.83;0.90;;;10.50;99.90;;;;;;5053162;28;20033;-64
2021/05/22 12:05:09;;;;;;;2.83;1.10;;;10.50;99.90;;;;;;5053319;28;20562;-64
2021/05/22 12:07:51;;;;;;;2.08;1.05;;;10.50;99.90;;;;;;5053202;28;20024;-64
2021/05/22 12:10:18;;;;;;;2.70;0.95;;;10.40;99.90;;;;;;5053417;28;20021;-64
2021/05/22 12:12:44;;;;;;;1.95;0.80;;;10.40;99.90;;;;;;5051589;28;20037;-63
2021/05/22 12:15:24;;;;;;;1.15;0.80;;;10.30;99.90;;;;;;5053209;28;20025;-62
2021/05/22 12:17:51;;;;;;;2.70;1.10;;;10.30;99.90;;;;;;5053409;28;20437;-61
2021/05/22 12:20:18;;;;;;;1.75;1.40;;;10.30;99.90;;;;;;5052748;28;20108;-61
2021/05/22 12:22:44;;;;;;;2.25;1.40;;;10.40;99.90;;;;;;5051932;28;20025;-60
2021/05/22 12:25:10;;;;;;;1.60;1.40;;;10.40;99.90;;;;;;5053350;28;20029;-60
2021/05/22 12:27:37;;;;;;;1.98;1.80;;;10.40;99.90;;;;;;5052932;28;20102;-60
2021/05/22 12:30:04;;;;;;;3.53;2.05;;;10.40;99.90;;;;;;5051721;28;20123;-60
2021/05/22 12:32:29;;;;;;;2.47;1.60;;;10.40;99.90;;;;;;5052615;28;20033;-60
2021/05/22 12:34:57;;;;;;;2.22;1.40;;;10.30;99.90;;;;;;5052559;28;20032;-60
2021/05/22 12:37:23;;;;;;;2.92;1.50;;;10.40;99.90;;;;;;5056685;28;20120;-61
2021/05/22 12:39:57;;;;;;;1.92;1.50;;;10.20;99.90;;;;;;5051517;28;20123;-61
2021/05/22 12:42:25;;;;;;;2.17;1.33;;;10.20;99.90;;;;;;5052424;28;20032;-61
2021/05/22 12:44:54;;;;;;;1.83;1.65;;;10.30;99.90;;;;;;5052320;28;20068;-60
2021/05/22 12:47:24;;;;;;;3.15;2.20;;;10.30;99.90;;;;;;5052635;28;20032;-60
2021/05/22 12:50:05;;;;;;;2.05;1.85;;;10.40;99.90;;;;;;5050949;28;20171;-60
2021/05/22 12:52:31;;;;;;;2.80;2.60;;;10.50;99.90;;;;;;5052643;28;20021;-60
2021/05/22 12:54:56;;;;;;;4.75;3.13;;;10.50;99.90;;;;;;5068029;28;20476;-60